KONT/ONT METAR and TAF weather

Enter ICAO airport designator
Station Type Date Time Source
KONT METAR 2020/11/25 22:53 UTC NOAA

KONT 252253Z 27008KT 10SM FEW250 19/04 A3002 RMK AO2 SLP161 T01940044


Station Type Date Time Source
KONT Decoded METAR 2020/11/25 22:53 UTC NOAA

ONTARIO INTERNATIONAL AIRPORT, CA, United States (KONT) 34-03N 117-35W 275M
Nov 25, 2020 - 05:53 PM EST / 2020.11.25 2253 UTC
Wind: from the W (270 degrees) at 9 MPH (8 KT):0
Visibility: 10 mile(s):0
Sky conditions: mostly clear
Temperature: 66.9 F (19.4 C)
Dew Point: 39.9 F (4.4 C)
Relative Humidity: 37%
Pressure (altimeter): 30.02 in. Hg (1016 hPa)
ob: KONT 252253Z 27008KT 10SM FEW250 19/04 A3002 RMK AO2 SLP161 T01940044
cycle: 23

Station Type Date Time Source
KONT TAF 2020/11/25 18:39 UTC NOAA

TAF KONT 251737Z 2518/2624 VRB04KT P6SM SKC
FM252000 26008KT P6SM SKC
FM260300 VRB03KT P6SM SCT020
FM260800 VRB03KT 6SM HZ BKN020
FM261500 VRB04KT P6SM SCT025
FM261900 06012G22KT P6SM SKC

Example: see airport list